sensor_id;sensor_type;location;lat;lon;timestamp;P1;durP1;ratioP1;P2;durP2;ratioP2
61570;SDS011;47463;49.884;10.010;2023-02-10T00:00:00;62.7;;;24.7;;
61570;SDS011;47463;49.884;10.010;2023-02-10T00:05:00;60.2;;;22.7;;
61570;SDS011;47463;49.884;10.010;2023-02-10T00:10:00;58.4;;;23.1;;
61570;SDS011;47463;49.884;10.010;2023-02-10T00:15:00;60.3;;;24.5;;
61570;SDS011;47463;49.884;10.010;2023-02-10T00:20:00;61.8;;;23.5;;
61570;SDS011;47463;49.884;10.010;2023-02-10T00:25:00;69.7;;;24.7;;
61570;SDS011;47463;49.884;10.010;2023-02-10T00:30:00;69.7;;;24.7;;
61570;SDS011;47463;49.884;10.010;2023-02-10T00:35:00;60.8;;;23.5;;
61570;SDS011;47463;49.884;10.010;2023-02-10T00:40:00;62.6;;;24.4;;
61570;SDS011;47463;49.884;10.010;2023-02-10T00:45:00;60.6;;;22.9;;
61570;SDS011;47463;49.884;10.010;2023-02-10T00:50:00;62.6;;;23.6;;
61570;SDS011;47463;49.884;10.010;2023-02-10T00:55:00;65.2;;;24.4;;
61570;SDS011;47463;49.884;10.010;2023-02-10T01:00:00;65.2;;;24.4;;
61570;SDS011;47463;49.884;10.010;2023-02-10T01:05:00;61.8;;;24;;
61570;SDS011;47463;49.884;10.010;2023-02-10T01:10:00;67.7;;;24.7;;
61570;SDS011;47463;49.884;10.010;2023-02-10T01:15:00;59.8;;;24.3;;
61570;SDS011;47463;49.884;10.010;2023-02-10T01:20:00;52.3;;;22.2;;
61570;SDS011;47463;49.884;10.010;2023-02-10T01:25:00;59.5;;;22.6;;
61570;SDS011;47463;49.884;10.010;2023-02-10T01:30:00;59.5;;;22.6;;
61570;SDS011;47463;49.884;10.010;2023-02-10T01:35:00;65.2;;;23.9;;
61570;SDS011;47463;49.884;10.010;2023-02-10T01:40:00;68.2;;;25.9;;
61570;SDS011;47463;49.884;10.010;2023-02-10T01:45:10;62.2;;;23.8;;
61570;SDS011;47463;49.884;10.010;2023-02-10T01:50:00;66.2;;;26.7;;
61570;SDS011;47463;49.884;10.010;2023-02-10T01:55:00;63.3;;;25.1;;
61570;SDS011;47463;49.884;10.010;2023-02-10T02:00:00;63.3;;;25.1;;
61570;SDS011;47463;49.884;10.010;2023-02-10T02:05:00;62.3;;;24.7;;
61570;SDS011;47463;49.884;10.010;2023-02-10T02:10:00;70.6;;;27;;
61570;SDS011;47463;49.884;10.010;2023-02-10T02:15:02;73.6;;;26.2;;
61570;SDS011;47463;49.884;10.010;2023-02-10T02:20:08;70;;;26.8;;
61570;SDS011;47463;49.884;10.010;2023-02-10T02:25:02;64.6;;;26.4;;
61570;SDS011;47463;49.884;10.010;2023-02-10T02:30:05;64.6;;;26.4;;
61570;SDS011;47463;49.884;10.010;2023-02-10T02:35:01;75.7;;;27.6;;
61570;SDS011;47463;49.884;10.010;2023-02-10T02:40:00;59.7;;;24.7;;
61570;SDS011;47463;49.884;10.010;2023-02-10T02:45:00;65;;;25.8;;
61570;SDS011;47463;49.884;10.010;2023-02-10T02:50:02;63.5;;;23.1;;
61570;SDS011;47463;49.884;10.010;2023-02-10T02:55:01;59.7;;;24.8;;
61570;SDS011;47463;49.884;10.010;2023-02-10T03:00:02;59.7;;;24.8;;
61570;SDS011;47463;49.884;10.010;2023-02-10T03:05:00;56.2;;;23.3;;
61570;SDS011;47463;49.884;10.010;2023-02-10T03:10:00;64.1;;;24.5;;
61570;SDS011;47463;49.884;10.010;2023-02-10T03:15:00;65.7;;;24.2;;
61570;SDS011;47463;49.884;10.010;2023-02-10T03:20:00;62.4;;;24.6;;
61570;SDS011;47463;49.884;10.010;2023-02-10T03:25:00;63.3;;;25.1;;
61570;SDS011;47463;49.884;10.010;2023-02-10T03:30:00;63.3;;;25.1;;
61570;SDS011;47463;49.884;10.010;2023-02-10T03:35:00;59.2;;;22.9;;
61570;SDS011;47463;49.884;10.010;2023-02-10T03:40:00;68.1;;;26.4;;
61570;SDS011;47463;49.884;10.010;2023-02-10T03:45:00;63.3;;;24.6;;
61570;SDS011;47463;49.884;10.010;2023-02-10T03:50:00;60.2;;;24.8;;
61570;SDS011;47463;49.884;10.010;2023-02-10T03:55:00;65.9;;;24.7;;
61570;SDS011;47463;49.884;10.010;2023-02-10T04:00:00;65.9;;;24.7;;
61570;SDS011;47463;49.884;10.010;2023-02-10T04:05:00;53.3;;;22.7;;
61570;SDS011;47463;49.884;10.010;2023-02-10T04:10:00;65.1;;;23.6;;
61570;SDS011;47463;49.884;10.010;2023-02-10T04:15:00;57;;;23.1;;
61570;SDS011;47463;49.884;10.010;2023-02-10T04:20:00;60.6;;;24.6;;
61570;SDS011;47463;49.884;10.010;2023-02-10T04:25:00;63.2;;;24.7;;
61570;SDS011;47463;49.884;10.010;2023-02-10T04:30:00;63.2;;;24.7;;
61570;SDS011;47463;49.884;10.010;2023-02-10T04:35:00;62.7;;;24.7;;
61570;SDS011;47463;49.884;10.010;2023-02-10T04:40:00;64.7;;;26.1;;
61570;SDS011;47463;49.884;10.010;2023-02-10T04:45:00;61.1;;;23.9;;
61570;SDS011;47463;49.884;10.010;2023-02-10T04:50:00;56.8;;;23.1;;
61570;SDS011;47463;49.884;10.010;2023-02-10T04:55:00;57.3;;;23.3;;
61570;SDS011;47463;49.884;10.010;2023-02-10T05:00:00;57.3;;;23.3;;
61570;SDS011;47463;49.884;10.010;2023-02-10T05:05:00;61.2;;;25.5;;
61570;SDS011;47463;49.884;10.010;2023-02-10T05:10:00;65.5;;;26.4;;
61570;SDS011;47463;49.884;10.010;2023-02-10T05:15:00;71.9;;;29.6;;
61570;SDS011;47463;49.884;10.010;2023-02-10T05:20:00;74.6;;;29.4;;
61570;SDS011;47463;49.884;10.010;2023-02-10T05:25:00;71.6;;;28;;
61570;SDS011;47463;49.884;10.010;2023-02-10T05:30:00;71.6;;;28;;
61570;SDS011;47463;49.884;10.010;2023-02-10T05:35:00;72.9;;;27.4;;
61570;SDS011;47463;49.884;10.010;2023-02-10T05:40:00;72.3;;;27.3;;
61570;SDS011;47463;49.884;10.010;2023-02-10T05:45:00;67.3;;;26;;
61570;SDS011;47463;49.884;10.010;2023-02-10T05:50:00;61.9;;;25.9;;
61570;SDS011;47463;49.884;10.010;2023-02-10T05:55:00;65.7;;;26.6;;
61570;SDS011;47463;49.884;10.010;2023-02-10T06:00:00;65.7;;;26.6;;
61570;SDS011;47463;49.884;10.010;2023-02-10T06:05:00;65.1;;;26.1;;
61570;SDS011;47463;49.884;10.010;2023-02-10T06:10:00;70.3;;;26.6;;
61570;SDS011;47463;49.884;10.010;2023-02-10T06:15:00;68.9;;;26.7;;
61570;SDS011;47463;49.884;10.010;2023-02-10T06:20:00;68.9;;;28.2;;
61570;SDS011;47463;49.884;10.010;2023-02-10T06:25:00;62.7;;;26.4;;
61570;SDS011;47463;49.884;10.010;2023-02-10T06:30:00;62.7;;;26.4;;
61570;SDS011;47463;49.884;10.010;2023-02-10T06:35:00;66.1;;;26.5;;
61570;SDS011;47463;49.884;10.010;2023-02-10T06:40:00;71.9;;;29.6;;
61570;SDS011;47463;49.884;10.010;2023-02-10T06:45:00;69.8;;;29.9;;
61570;SDS011;47463;49.884;10.010;2023-02-10T06:50:00;77.9;;;29.5;;
61570;SDS011;47463;49.884;10.010;2023-02-10T06:55:00;67.3;;;26.5;;
61570;SDS011;47463;49.884;10.010;2023-02-10T07:00:00;67.3;;;26.5;;
61570;SDS011;47463;49.884;10.010;2023-02-10T07:05:00;70.7;;;29.6;;
61570;SDS011;47463;49.884;10.010;2023-02-10T07:10:00;75.4;;;28.9;;
61570;SDS011;47463;49.884;10.010;2023-02-10T07:15:00;68.9;;;27.6;;
61570;SDS011;47463;49.884;10.010;2023-02-10T07:20:00;69.6;;;30.9;;
61570;SDS011;47463;49.884;10.010;2023-02-10T07:25:00;69.2;;;28.6;;
61570;SDS011;47463;49.884;10.010;2023-02-10T07:30:00;69.2;;;28.6;;
61570;SDS011;47463;49.884;10.010;2023-02-10T07:35:00;73.6;;;31.5;;
61570;SDS011;47463;49.884;10.010;2023-02-10T07:40:00;76.8;;;31.8;;
61570;SDS011;47463;49.884;10.010;2023-02-10T07:45:00;72.9;;;31.5;;
61570;SDS011;47463;49.884;10.010;2023-02-10T07:50:00;72.6;;;31.1;;
61570;SDS011;47463;49.884;10.010;2023-02-10T07:55:00;73.9;;;30.5;;
61570;SDS011;47463;49.884;10.010;2023-02-10T08:00:00;73.9;;;30.5;;
61570;SDS011;47463;49.884;10.010;2023-02-10T08:05:00;69.8;;;30.7;;
61570;SDS011;47463;49.884;10.010;2023-02-10T08:10:00;66.7;;;28.9;;
61570;SDS011;47463;49.884;10.010;2023-02-10T08:15:00;70.5;;;30.6;;
61570;SDS011;47463;49.884;10.010;2023-02-10T08:20:00;66;;;27.7;;
61570;SDS011;47463;49.884;10.010;2023-02-10T08:25:00;68.2;;;30.7;;
61570;SDS011;47463;49.884;10.010;2023-02-10T08:30:00;68.2;;;30.7;;
61570;SDS011;47463;49.884;10.010;2023-02-10T08:35:00;65.2;;;29;;
61570;SDS011;47463;49.884;10.010;2023-02-10T08:40:00;65.9;;;29.2;;
61570;SDS011;47463;49.884;10.010;2023-02-10T08:45:00;67.4;;;30;;
61570;SDS011;47463;49.884;10.010;2023-02-10T08:50:00;69.6;;;29.4;;
61570;SDS011;47463;49.884;10.010;2023-02-10T08:55:00;65.4;;;29.9;;
61570;SDS011;47463;49.884;10.010;2023-02-10T09:00:00;65.4;;;29.9;;
61570;SDS011;47463;49.884;10.010;2023-02-10T09:05:00;61.8;;;27.8;;
61570;SDS011;47463;49.884;10.010;2023-02-10T09:10:00;65.9;;;29.1;;
61570;SDS011;47463;49.884;10.010;2023-02-10T09:15:00;68.6;;;31;;
61570;SDS011;47463;49.884;10.010;2023-02-10T09:20:00;64.6;;;29.4;;
61570;SDS011;47463;49.884;10.010;2023-02-10T09:25:00;66.4;;;30.5;;
61570;SDS011;47463;49.884;10.010;2023-02-10T09:30:00;66.4;;;30.5;;
61570;SDS011;47463;49.884;10.010;2023-02-10T09:35:00;69.1;;;31;;
61570;SDS011;47463;49.884;10.010;2023-02-10T09:40:00;62;;;28.3;;
61570;SDS011;47463;49.884;10.010;2023-02-10T09:45:02;62.2;;;29.3;;
61570;SDS011;47463;49.884;10.010;2023-02-10T09:50:03;67.6;;;29.9;;
61570;SDS011;47463;49.884;10.010;2023-02-10T09:55:00;65.5;;;30.1;;
61570;SDS011;47463;49.884;10.010;2023-02-10T10:00:00;65.5;;;30.1;;
61570;SDS011;47463;49.884;10.010;2023-02-10T10:05:00;76.9;;;32.6;;
61570;SDS011;47463;49.884;10.010;2023-02-10T10:10:00;69.4;;;32.8;;
61570;SDS011;47463;49.884;10.010;2023-02-10T10:15:00;68.1;;;32.5;;
61570;SDS011;47463;49.884;10.010;2023-02-10T10:20:03;68.4;;;31;;
61570;SDS011;47463;49.884;10.010;2023-02-10T10:25:06;65;;;29.7;;
61570;SDS011;47463;49.884;10.010;2023-02-10T10:30:00;65;;;29.7;;
61570;SDS011;47463;49.884;10.010;2023-02-10T10:35:00;64.1;;;31;;
61570;SDS011;47463;49.884;10.010;2023-02-10T10:40:01;68.6;;;31.1;;
61570;SDS011;47463;49.884;10.010;2023-02-10T10:45:02;69.6;;;31.9;;
61570;SDS011;47463;49.884;10.010;2023-02-10T10:50:00;63.6;;;31.3;;
61570;SDS011;47463;49.884;10.010;2023-02-10T10:55:00;69;;;29.9;;
61570;SDS011;47463;49.884;10.010;2023-02-10T11:00:05;69;;;29.9;;
61570;SDS011;47463;49.884;10.010;2023-02-10T11:05:00;65.1;;;30.8;;
61570;SDS011;47463;49.884;10.010;2023-02-10T11:10:00;70.6;;;30.5;;
61570;SDS011;47463;49.884;10.010;2023-02-10T11:15:00;70.3;;;31.1;;
61570;SDS011;47463;49.884;10.010;2023-02-10T11:20:00;71.1;;;31.4;;
61570;SDS011;47463;49.884;10.010;2023-02-10T11:25:00;65.2;;;30.9;;
61570;SDS011;47463;49.884;10.010;2023-02-10T11:30:00;65.2;;;30.9;;
61570;SDS011;47463;49.884;10.010;2023-02-10T11:35:00;70.3;;;32.1;;
61570;SDS011;47463;49.884;10.010;2023-02-10T11:40:01;64.3;;;30.1;;
61570;SDS011;47463;49.884;10.010;2023-02-10T11:45:00;66.2;;;30.6;;
61570;SDS011;47463;49.884;10.010;2023-02-10T11:50:00;64;;;30.8;;
61570;SDS011;47463;49.884;10.010;2023-02-10T11:55:00;64;;;31.2;;
61570;SDS011;47463;49.884;10.010;2023-02-10T12:00:04;64;;;31.2;;
61570;SDS011;47463;49.884;10.010;2023-02-10T12:05:02;67;;;31.6;;
61570;SDS011;47463;49.884;10.010;2023-02-10T12:10:02;67.2;;;32.6;;
61570;SDS011;47463;49.884;10.010;2023-02-10T12:15:02;67.6;;;32;;
61570;SDS011;47463;49.884;10.010;2023-02-10T12:20:02;69.1;;;31.6;;
61570;SDS011;47463;49.884;10.010;2023-02-10T12:25:03;63.5;;;30.6;;
61570;SDS011;47463;49.884;10.010;2023-02-10T12:30:01;63.5;;;30.6;;
61570;SDS011;47463;49.884;10.010;2023-02-10T12:35:04;70.8;;;34;;
61570;SDS011;47463;49.884;10.010;2023-02-10T12:40:05;69.8;;;34;;
61570;SDS011;47463;49.884;10.010;2023-02-10T12:45:00;69.2;;;34;;
61570;SDS011;47463;49.884;10.010;2023-02-10T12:50:02;73.8;;;35;;
61570;SDS011;47463;49.884;10.010;2023-02-10T12:55:01;65.9;;;32.8;;
61570;SDS011;47463;49.884;10.010;2023-02-10T13:00:01;65.9;;;32.8;;
61570;SDS011;47463;49.884;10.010;2023-02-10T13:05:01;71;;;34.4;;
61570;SDS011;47463;49.884;10.010;2023-02-10T13:10:01;68.2;;;34.7;;
61570;SDS011;47463;49.884;10.010;2023-02-10T13:15:01;69.2;;;33.5;;
61570;SDS011;47463;49.884;10.010;2023-02-10T13:20:00;64.9;;;33.2;;
61570;SDS011;47463;49.884;10.010;2023-02-10T13:25:00;72.4;;;33;;
61570;SDS011;47463;49.884;10.010;2023-02-10T13:30:03;72.4;;;33;;
61570;SDS011;47463;49.884;10.010;2023-02-10T13:35:00;68.5;;;33.2;;
61570;SDS011;47463;49.884;10.010;2023-02-10T13:40:00;67.2;;;33.4;;
61570;SDS011;47463;49.884;10.010;2023-02-10T13:45:00;66.5;;;31.3;;
61570;SDS011;47463;49.884;10.010;2023-02-10T13:50:00;67.3;;;32;;
61570;SDS011;47463;49.884;10.010;2023-02-10T13:55:00;61.9;;;29.7;;
61570;SDS011;47463;49.884;10.010;2023-02-10T14:00:16;61.9;;;29.7;;
61570;SDS011;47463;49.884;10.010;2023-02-10T14:05:00;67.4;;;31.2;;
61570;SDS011;47463;49.884;10.010;2023-02-10T14:10:00;65.1;;;30.5;;
61570;SDS011;47463;49.884;10.010;2023-02-10T14:15:17;65.9;;;30.2;;
61570;SDS011;47463;49.884;10.010;2023-02-10T14:20:00;61.9;;;30.5;;
61570;SDS011;47463;49.884;10.010;2023-02-10T14:25:02;63.5;;;30.1;;
61570;SDS011;47463;49.884;10.010;2023-02-10T14:30:00;63.5;;;30.1;;
61570;SDS011;47463;49.884;10.010;2023-02-10T14:35:00;59.9;;;30.4;;
61570;SDS011;47463;49.884;10.010;2023-02-10T14:40:00;64.4;;;31.2;;
61570;SDS011;47463;49.884;10.010;2023-02-10T14:45:00;61.3;;;30.4;;
61570;SDS011;47463;49.884;10.010;2023-02-10T14:50:00;59.7;;;30.2;;
61570;SDS011;47463;49.884;10.010;2023-02-10T14:55:00;70.3;;;31.6;;
61570;SDS011;47463;49.884;10.010;2023-02-10T15:00:00;70.3;;;31.6;;
61570;SDS011;47463;49.884;10.010;2023-02-10T15:05:01;68.3;;;30.9;;
61570;SDS011;47463;49.884;10.010;2023-02-10T15:10:02;63.7;;;30.7;;
61570;SDS011;47463;49.884;10.010;2023-02-10T15:15:00;63.4;;;30.4;;
61570;SDS011;47463;49.884;10.010;2023-02-10T15:20:00;64.4;;;29.1;;
61570;SDS011;47463;49.884;10.010;2023-02-10T15:25:14;63.2;;;31.1;;
61570;SDS011;47463;49.884;10.010;2023-02-10T15:30:04;63.2;;;31.1;;
61570;SDS011;47463;49.884;10.010;2023-02-10T15:35:04;64.5;;;30.5;;
61570;SDS011;47463;49.884;10.010;2023-02-10T15:40:00;61;;;29.2;;
61570;SDS011;47463;49.884;10.010;2023-02-10T15:45:00;65.2;;;31;;
61570;SDS011;47463;49.884;10.010;2023-02-10T15:50:00;69.3;;;31.7;;
61570;SDS011;47463;49.884;10.010;2023-02-10T15:55:00;62.1;;;29.9;;
61570;SDS011;47463;49.884;10.010;2023-02-10T16:00:00;62.1;;;29.9;;
61570;SDS011;47463;49.884;10.010;2023-02-10T16:05:00;60.1;;;29;;
61570;SDS011;47463;49.884;10.010;2023-02-10T16:10:00;66.2;;;31.5;;
61570;SDS011;47463;49.884;10.010;2023-02-10T16:15:00;62.3;;;28.8;;
61570;SDS011;47463;49.884;10.010;2023-02-10T16:20:00;68.3;;;31;;
61570;SDS011;47463;49.884;10.010;2023-02-10T16:25:00;68;;;30.4;;
61570;SDS011;47463;49.884;10.010;2023-02-10T16:30:00;68;;;30.4;;
61570;SDS011;47463;49.884;10.010;2023-02-10T16:35:00;69.8;;;30.1;;
61570;SDS011;47463;49.884;10.010;2023-02-10T16:40:00;62.7;;;29;;
61570;SDS011;47463;49.884;10.010;2023-02-10T16:45:00;63.1;;;29.6;;
61570;SDS011;47463;49.884;10.010;2023-02-10T16:50:00;61.2;;;28.4;;
61570;SDS011;47463;49.884;10.010;2023-02-10T16:55:00;63.8;;;29.4;;
61570;SDS011;47463;49.884;10.010;2023-02-10T17:00:00;63.8;;;29.4;;
61570;SDS011;47463;49.884;10.010;2023-02-10T17:05:00;66.3;;;29.9;;
61570;SDS011;47463;49.884;10.010;2023-02-10T17:10:00;67.8;;;30.5;;
61570;SDS011;47463;49.884;10.010;2023-02-10T17:15:00;67;;;30.1;;
61570;SDS011;47463;49.884;10.010;2023-02-10T17:20:00;76.9;;;32.1;;
61570;SDS011;47463;49.884;10.010;2023-02-10T17:25:00;75.8;;;33.1;;
61570;SDS011;47463;49.884;10.010;2023-02-10T17:30:00;75.8;;;33.1;;
61570;SDS011;47463;49.884;10.010;2023-02-10T17:35:00;68.6;;;32.4;;
61570;SDS011;47463;49.884;10.010;2023-02-10T17:40:00;63.2;;;29.9;;
61570;SDS011;47463;49.884;10.010;2023-02-10T17:45:00;67.6;;;30.8;;
61570;SDS011;47463;49.884;10.010;2023-02-10T17:50:00;73.9;;;32.3;;
61570;SDS011;47463;49.884;10.010;2023-02-10T17:55:00;66.1;;;30.8;;
61570;SDS011;47463;49.884;10.010;2023-02-10T18:00:00;66.1;;;30.8;;
61570;SDS011;47463;49.884;10.010;2023-02-10T18:05:00;75.5;;;32.5;;
61570;SDS011;47463;49.884;10.010;2023-02-10T18:10:00;73.2;;;32.8;;
61570;SDS011;47463;49.884;10.010;2023-02-10T18:15:00;71.5;;;33.4;;
61570;SDS011;47463;49.884;10.010;2023-02-10T18:20:00;72.8;;;33.3;;
61570;SDS011;47463;49.884;10.010;2023-02-10T18:25:00;71.3;;;33.5;;
61570;SDS011;47463;49.884;10.010;2023-02-10T18:30:00;71.3;;;33.5;;
61570;SDS011;47463;49.884;10.010;2023-02-10T18:35:00;68.9;;;33.1;;
61570;SDS011;47463;49.884;10.010;2023-02-10T18:40:00;72.1;;;32.4;;
61570;SDS011;47463;49.884;10.010;2023-02-10T18:45:00;68;;;33.6;;
61570;SDS011;47463;49.884;10.010;2023-02-10T18:50:00;72.1;;;32.5;;
61570;SDS011;47463;49.884;10.010;2023-02-10T18:55:00;70.4;;;32.9;;
61570;SDS011;47463;49.884;10.010;2023-02-10T19:00:00;70.4;;;32.9;;
61570;SDS011;47463;49.884;10.010;2023-02-10T19:05:00;72.4;;;33.3;;
61570;SDS011;47463;49.884;10.010;2023-02-10T19:10:00;74;;;33.6;;
61570;SDS011;47463;49.884;10.010;2023-02-10T19:15:00;73.3;;;33.6;;
61570;SDS011;47463;49.884;10.010;2023-02-10T19:20:00;78.5;;;35;;
61570;SDS011;47463;49.884;10.010;2023-02-10T19:25:00;79.1;;;36;;
61570;SDS011;47463;49.884;10.010;2023-02-10T19:30:00;79.1;;;36;;
61570;SDS011;47463;49.884;10.010;2023-02-10T19:35:00;79.6;;;35.6;;
61570;SDS011;47463;49.884;10.010;2023-02-10T19:40:00;78.3;;;35.5;;
61570;SDS011;47463;49.884;10.010;2023-02-10T19:45:00;79.8;;;36.6;;
61570;SDS011;47463;49.884;10.010;2023-02-10T19:50:00;95.6;;;38.5;;
61570;SDS011;47463;49.884;10.010;2023-02-10T19:55:00;77.3;;;35.7;;
61570;SDS011;47463;49.884;10.010;2023-02-10T20:00:00;77.3;;;35.7;;
61570;SDS011;47463;49.884;10.010;2023-02-10T20:05:00;75.5;;;33.1;;
61570;SDS011;47463;49.884;10.010;2023-02-10T20:10:00;71.5;;;34;;
61570;SDS011;47463;49.884;10.010;2023-02-10T20:15:00;76.6;;;34.1;;
61570;SDS011;47463;49.884;10.010;2023-02-10T20:20:00;68.9;;;33.9;;
61570;SDS011;47463;49.884;10.010;2023-02-10T20:25:00;72.7;;;33.5;;
61570;SDS011;47463;49.884;10.010;2023-02-10T20:30:00;72.7;;;33.5;;
61570;SDS011;47463;49.884;10.010;2023-02-10T20:35:00;79.1;;;34.1;;
61570;SDS011;47463;49.884;10.010;2023-02-10T20:40:00;70.7;;;32.8;;
61570;SDS011;47463;49.884;10.010;2023-02-10T20:45:00;70.5;;;33.5;;
61570;SDS011;47463;49.884;10.010;2023-02-10T20:50:00;68.3;;;32;;
61570;SDS011;47463;49.884;10.010;2023-02-10T20:55:00;66.5;;;31.1;;
61570;SDS011;47463;49.884;10.010;2023-02-10T21:00:00;66.5;;;31.1;;
61570;SDS011;47463;49.884;10.010;2023-02-10T21:05:00;68.5;;;33.4;;
61570;SDS011;47463;49.884;10.010;2023-02-10T21:10:00;68;;;32.6;;
61570;SDS011;47463;49.884;10.010;2023-02-10T21:15:00;68.6;;;32.1;;
61570;SDS011;47463;49.884;10.010;2023-02-10T21:20:00;67.5;;;31.1;;
61570;SDS011;47463;49.884;10.010;2023-02-10T21:25:00;71;;;33.1;;
61570;SDS011;47463;49.884;10.010;2023-02-10T21:30:00;71;;;33.1;;
61570;SDS011;47463;49.884;10.010;2023-02-10T21:35:00;67.7;;;30.3;;
61570;SDS011;47463;49.884;10.010;2023-02-10T21:40:00;68;;;31.3;;
61570;SDS011;47463;49.884;10.010;2023-02-10T21:45:00;62.8;;;29.9;;
61570;SDS011;47463;49.884;10.010;2023-02-10T21:50:00;62.7;;;30.9;;
61570;SDS011;47463;49.884;10.010;2023-02-10T21:55:00;61.5;;;28.4;;
61570;SDS011;47463;49.884;10.010;2023-02-10T22:00:00;61.5;;;28.4;;
61570;SDS011;47463;49.884;10.010;2023-02-10T22:05:00;62.7;;;28.4;;
61570;SDS011;47463;49.884;10.010;2023-02-10T22:10:00;59.4;;;28.8;;
61570;SDS011;47463;49.884;10.010;2023-02-10T22:15:00;68.4;;;30.7;;
61570;SDS011;47463;49.884;10.010;2023-02-10T22:20:00;71.1;;;31.5;;
61570;SDS011;47463;49.884;10.010;2023-02-10T22:25:00;70.4;;;30.8;;
61570;SDS011;47463;49.884;10.010;2023-02-10T22:30:00;70.4;;;30.8;;
61570;SDS011;47463;49.884;10.010;2023-02-10T22:35:00;66.5;;;29.7;;
61570;SDS011;47463;49.884;10.010;2023-02-10T22:40:00;68.2;;;30.4;;
61570;SDS011;47463;49.884;10.010;2023-02-10T22:45:00;66.4;;;30.3;;
61570;SDS011;47463;49.884;10.010;2023-02-10T22:50:00;67.4;;;29.4;;
61570;SDS011;47463;49.884;10.010;2023-02-10T22:55:00;70.6;;;30.6;;
61570;SDS011;47463;49.884;10.010;2023-02-10T23:00:00;70.6;;;30.6;;
61570;SDS011;47463;49.884;10.010;2023-02-10T23:05:00;65.4;;;32.1;;
61570;SDS011;47463;49.884;10.010;2023-02-10T23:10:00;66.7;;;31.6;;
61570;SDS011;47463;49.884;10.010;2023-02-10T23:15:00;67.1;;;30.9;;
61570;SDS011;47463;49.884;10.010;2023-02-10T23:20:00;64.3;;;30.9;;
61570;SDS011;47463;49.884;10.010;2023-02-10T23:25:00;61;;;29.3;;
61570;SDS011;47463;49.884;10.010;2023-02-10T23:30:00;61;;;29.3;;
61570;SDS011;47463;49.884;10.010;2023-02-10T23:35:00;64.3;;;31.5;;
61570;SDS011;47463;49.884;10.010;2023-02-10T23:40:00;68.7;;;31.7;;
61570;SDS011;47463;49.884;10.010;2023-02-10T23:45:00;69.9;;;33;;
61570;SDS011;47463;49.884;10.010;2023-02-10T23:50:00;68;;;31.5;;
61570;SDS011;47463;49.884;10.010;2023-02-10T23:55:00;67.4;;;30.9;;
